Time;durP1;ratioP1;P1;durP2;ratioP2;P2;SDS_P1;SDS_P2;PMS_P1;PMS_P2;Temp;Humidity;BMP_temperature;BMP_pressure;BME280_temperature;BME280_humidity;BME280_pressure;Samples;Min_cycle;Max_cycle;Signal;HPM_P1;HPM_P2
2022/05/26 05:05:56;;;;;;;;;;;;;;;19.72;100.00;98677.63;5482426;23;19976;-75
2022/05/26 05:08:24;;;;;;;;;;;;;;;19.69;100.00;98673.66;4912801;29;20346;-74
2022/05/26 05:10:51;;;;;;;;;;;;;;;19.67;100.00;98670.47;4914984;29;19958;-75
2022/05/26 05:13:19;;;;;;;;;;;;;;;19.70;100.00;98678.09;4907785;29;19947;-75
2022/05/26 05:15:52;;;;;;;;;;;;;;;19.70;100.00;98680.13;4925043;29;19949;-75
2022/05/26 05:18:23;;;;;;;;;;;;;;;19.71;100.00;98682.50;4915237;29;19980;-75
2022/05/26 05:20:51;;;;;;;;;;;;;;;19.76;100.00;98693.31;4923080;29;19953;-75
2022/05/26 05:23:18;;;;;;;;;;;;;;;19.80;100.00;98694.03;4922944;29;20340;-75
2022/05/26 05:25:47;;;;;;;;;;;;;;;19.84;100.00;98702.41;4927861;29;19948;-75
2022/05/26 05:28:21;;;;;;;;;;;;;;;19.87;100.00;98702.31;4940491;29;19960;-75
2022/05/26 05:30:56;;;;;;;;;;;;;;;19.93;100.00;98705.41;4923210;29;20251;-75
2022/05/26 05:33:36;;;;;;;;;;;;;;;19.96;100.00;98715.84;4939705;29;19962;-76
2022/05/26 05:36:06;;;;;;;;;;;;;;;19.99;100.00;98707.22;4941785;29;19952;-75
2022/05/26 05:38:35;;;;;;;;;;;;;;;20.05;100.00;98719.59;4941782;29;19965;-75
2022/05/26 05:41:02;;;;;;;;;;;;;;;20.08;100.00;98723.59;4917541;29;19955;-75
2022/05/26 05:43:30;;;;;;;;;;;;;;;20.09;100.00;98726.00;4904221;29;19950;-76
2022/05/26 05:45:58;;;;;;;;;;;;;;;20.09;100.00;98740.19;4914171;29;20349;-75
2022/05/26 05:48:25;;;;;;;;;;;;;;;20.09;100.00;98734.50;4917821;29;19962;-75
2022/05/26 05:50:52;;;;;;;;;;;;;;;20.10;100.00;98733.25;4906468;29;19970;-75
2022/05/26 05:53:19;;;;;;;;;;;;;;;20.10;100.00;98743.81;4922740;29;19963;-76
2022/05/26 05:55:47;;;;;;;;;;;;;;;20.11;100.00;98748.25;4903853;29;19964;-75
2022/05/26 05:58:14;;;;;;;;;;;;;;;20.12;100.00;98747.81;4905733;29;19960;-76
2022/05/26 06:00:42;;;;;;;;;;;;;;;20.14;100.00;98747.34;4912625;29;19955;-75
2022/05/26 06:03:09;;;;;;;;;;;;;;;20.12;100.00;98752.69;4907151;29;19956;-75
2022/05/26 06:05:37;;;;;;;;;;;;;;;20.12;100.00;98759.16;4917954;29;20267;-76
2022/05/26 06:08:05;;;;;;;;;;;;;;;20.13;100.00;98751.41;4918196;29;19954;-75
2022/05/26 06:10:32;;;;;;;;;;;;;;;20.08;100.00;98752.78;4914828;29;19964;-75
2022/05/26 06:13:00;;;;;;;;;;;;;;;20.07;100.00;98756.09;4923039;29;20256;-75
2022/05/26 06:15:27;;;;;;;;;;;;;;;20.06;100.00;98751.63;4907140;29;19953;-75
2022/05/26 06:17:56;;;;;;;;;;;;;;;20.09;100.00;98754.38;4913709;29;19965;-75
2022/05/26 06:20:23;;;;;;;;;;;;;;;20.13;100.00;98740.06;4923091;29;19955;-75
2022/05/26 06:22:51;;;;;;;;;;;;;;;20.13;100.00;98749.38;4923564;29;19957;-76
2022/05/26 06:25:19;;;;;;;;;;;;;;;20.16;100.00;98754.16;4929487;29;20343;-75
2022/05/26 06:30:33;;;;;;;;;;;;;;;20.32;100.00;98750.47;4942088;29;19964;-75
2022/05/26 06:38:38;;;;;;;;;;;;;;;20.48;100.00;98752.41;4938796;29;20249;-75
2022/05/26 06:43:56;;;;;;;;;;;;;;;20.83;100.00;98769.13;4916547;29;19959;-75
2022/05/26 06:46:24;;;;;;;;;;;;;;;20.92;100.00;98765.63;4915893;29;19947;-76
2022/05/26 06:48:51;;;;;;;;;;;;;;;20.98;100.00;98771.53;4914909;29;19952;-75
2022/05/26 06:51:19;;;;;;;;;;;;;;;21.08;100.00;98770.41;4904705;29;19962;-75
2022/05/26 06:53:46;;;;;;;;;;;;;;;21.21;100.00;98769.13;4908025;29;19949;-75
2022/05/26 06:56:15;;;;;;;;;;;;;;;21.32;100.00;98772.38;4912476;29;19955;-76
2022/05/26 06:58:42;;;;;;;;;;;;;;;21.42;100.00;98779.00;4908716;29;19954;-76
2022/05/26 07:01:16;;;;;;;;;;;;;;;21.53;100.00;98785.09;4902568;29;20369;-74
2022/05/26 07:03:43;;;;;;;;;;;;;;;21.68;100.00;98793.94;4902718;29;19948;-74
2022/05/26 07:06:14;;;;;;;;;;;;;;;21.69;100.00;98784.16;4903062;29;19979;-75
2022/05/26 07:08:43;;;;;;;;;;;;;;;21.71;100.00;98793.81;4903521;29;20356;-76
2022/05/26 07:11:10;;;;;;;;;;;;;;;21.65;100.00;98798.50;4902771;29;19980;-75
2022/05/26 07:13:38;;;;;;;;;;;;;;;21.80;100.00;98798.78;4902612;29;19948;-75
2022/05/26 07:16:06;;;;;;;;;;;;;;;21.91;100.00;98797.16;4907923;29;19953;-75
2022/05/26 07:18:33;;;;;;;;;;;;;;;22.07;100.00;98799.84;4918992;29;19954;-75
2022/05/26 07:21:05;;;;;;;;;;;;;;;22.19;100.00;98796.13;4911945;29;19954;-75
2022/05/26 07:23:33;;;;;;;;;;;;;;;22.04;100.00;98792.22;4902778;29;19955;-75
2022/05/26 07:26:04;;;;;;;;;;;;;;;22.08;100.00;98794.94;4901874;29;19954;-74
2022/05/26 07:28:32;;;;;;;;;;;;;;;22.00;100.00;98791.56;4902829;29;20245;-75
2022/05/26 07:30:59;;;;;;;;;;;;;;;22.05;100.00;98804.41;4902057;29;19980;-75
2022/05/26 07:33:27;;;;;;;;;;;;;;;22.09;100.00;98796.50;4914492;29;19953;-75
2022/05/26 07:35:54;;;;;;;;;;;;;;;22.12;100.00;98793.53;4921439;29;19958;-74
2022/05/26 07:41:18;;;;;;;;;;;;;;;22.44;100.00;98789.47;4911680;29;19957;-75
2022/05/26 07:43:52;;;;;;;;;;;;;;;22.65;100.00;98791.53;4910876;29;19956;-75
2022/05/26 07:46:20;;;;;;;;;;;;;;;22.82;100.00;98797.78;4913512;29;19967;-75
2022/05/26 07:48:48;;;;;;;;;;;;;;;22.67;100.00;98789.00;4920873;29;19959;-73
2022/05/26 07:51:16;;;;;;;;;;;;;;;22.69;100.00;98792.16;4886328;29;19979;-73
2022/05/26 07:53:43;;;;;;;;;;;;;;;22.89;100.00;98801.13;4910594;29;20348;-73
2022/05/26 07:56:11;;;;;;;;;;;;;;;22.91;100.00;98811.28;4921247;29;19956;-73
2022/05/26 07:58:38;;;;;;;;;;;;;;;22.98;100.00;98803.25;4921447;29;19949;-73
2022/05/26 08:01:07;;;;;;;;;;;;;;;23.21;100.00;98796.16;4920968;29;19945;-73
2022/05/26 08:03:34;;;;;;;;;;;;;;;23.17;100.00;98799.19;4920665;29;19953;-73
2022/05/26 08:06:02;;;;;;;;;;;;;;;23.28;100.00;98793.03;4919251;29;20267;-73
2022/05/26 08:08:31;;;;;;;;;;;;;;;23.38;100.00;98797.50;4915304;29;20448;-73
2022/05/26 08:10:58;;;;;;;;;;;;;;;23.57;100.00;98802.03;4919249;29;20396;-73
2022/05/26 08:13:26;;;;;;;;;;;;;;;23.38;100.00;98800.38;4918757;29;19952;-73
2022/05/26 08:15:53;;;;;;;;;;;;;;;23.55;100.00;98795.19;4920531;29;19960;-73
2022/05/26 08:18:20;;;;;;;;;;;;;;;23.58;100.00;98809.31;4919835;29;19972;-73
2022/05/26 08:20:48;;;;;;;;;;;;;;;23.70;100.00;98805.50;4920808;29;19949;-73
2022/05/26 08:23:22;;;;;;;;;;;;;;;23.63;100.00;98817.25;4903456;29;19947;-73
2022/05/26 08:25:49;;;;;;;;;;;;;;;23.59;100.00;98819.47;4897386;29;19956;-73
2022/05/26 08:28:17;;;;;;;;;;;;;;;23.64;100.00;98824.56;4903990;29;19947;-73
2022/05/26 08:30:44;;;;;;;;;;;;;;;23.73;100.00;98823.75;4919943;29;19972;-73
2022/05/26 08:33:12;;;;;;;;;;;;;;;23.76;100.00;98832.19;4920153;29;19946;-73
2022/05/26 08:35:39;;;;;;;;;;;;;;;23.58;100.00;98823.56;4920702;29;19956;-73
2022/05/26 08:38:07;;;;;;;;;;;;;;;23.92;100.00;98829.00;4919902;29;20251;-73
2022/05/26 08:40:40;;;;;;;;;;;;;;;23.95;100.00;98830.94;4919432;29;20492;-73
2022/05/26 08:43:12;;;;;;;;;;;;;;;23.91;100.00;98832.34;4920303;29;19953;-73
2022/05/26 08:45:44;;;;;;;;;;;;;;;24.10;100.00;98831.13;4919702;29;19955;-73
2022/05/26 08:48:15;;;;;;;;;;;;;;;24.03;100.00;98843.63;4921352;29;19962;-73
2022/05/26 08:50:42;;;;;;;;;;;;;;;24.04;100.00;98841.53;4902659;29;19966;-73
2022/05/26 08:53:10;;;;;;;;;;;;;;;24.00;100.00;98840.91;4918114;29;19954;-73
2022/05/26 08:55:43;;;;;;;;;;;;;;;24.12;100.00;98843.66;4939084;29;19949;-73
2022/05/26 08:58:17;;;;;;;;;;;;;;;24.22;100.00;98850.16;4918441;29;19957;-73
2022/05/26 09:00:47;;;;;;;;;;;;;;;24.43;100.00;98854.91;4906286;29;19955;-73
2022/05/26 09:03:20;;;;;;;;;;;;;;;24.41;100.00;98859.50;4920200;29;19994;-73
2022/05/26 09:05:51;;;;;;;;;;;;;;;24.61;100.00;98862.66;4920368;29;19972;-73
2022/05/26 09:14:01;;;;;;;;;;;;;;;24.05;100.00;98880.28;4920718;29;19948;-73
2022/05/26 09:16:31;;;;;;;;;;;;;;;24.11;100.00;98876.34;4917509;29;19952;-73
2022/05/26 09:19:10;;;;;;;;;;;;;;;24.19;100.00;98882.53;4918313;29;19956;-73
2022/05/26 09:21:37;;;;;;;;;;;;;;;24.38;100.00;98883.34;4920133;29;19957;-73
2022/05/26 09:24:25;;;;;;;;;;;;;;;24.47;100.00;98886.22;4919763;29;19948;-73
2022/05/26 09:26:57;;;;;;;;;;;;;;;24.70;100.00;98879.81;4915588;29;19948;-74
2022/05/26 09:29:26;;;;;;;;;;;;;;;24.75;100.00;98887.75;4917053;29;19949;-74
2022/05/26 09:31:54;;;;;;;;;;;;;;;24.86;100.00;98879.50;4911183;29;19968;-73
2022/05/26 09:34:33;;;;;;;;;;;;;;;24.76;100.00;98884.41;4917787;29;20269;-74
2022/05/26 09:37:35;;;;;;;;;;;;;;;24.69;100.00;98893.34;4903340;29;19995;-73
2022/05/26 09:40:13;;;;;;;;;;;;;;;24.50;100.00;98886.03;4901278;29;19957;-73
2022/05/26 09:42:41;;;;;;;;;;;;;;;24.44;100.00;98885.09;4900808;29;19948;-73
2022/05/26 09:45:14;;;;;;;;;;;;;;;24.31;100.00;98887.31;4900864;29;19957;-73
2022/05/26 09:47:56;;;;;;;;;;;;;;;24.23;100.00;98883.19;4906982;29;19949;-73
2022/05/26 09:50:33;;;;;;;;;;;;;;;24.46;100.00;98885.41;4919217;29;19955;-73
2022/05/26 09:53:01;;;;;;;;;;;;;;;24.53;100.00;98881.41;4938660;29;19947;-73
2022/05/26 09:55:29;;;;;;;;;;;;;;;24.47;100.00;98884.16;4938448;29;19959;-73
2022/05/26 09:58:07;;;;;;;;;;;;;;;24.36;100.00;98886.69;4941557;29;19949;-73
2022/05/26 10:00:42;;;;;;;;;;;;;;;24.38;100.00;98887.00;4941891;29;19955;-73
2022/05/26 10:03:19;;;;;;;;;;;;;;;24.19;100.00;98879.69;4923145;29;20337;-74
2022/05/26 10:06:05;;;;;;;;;;;;;;;23.99;100.00;98882.19;4899799;29;19977;-73
2022/05/26 10:08:38;;;;;;;;;;;;;;;23.83;100.00;98886.13;4904157;29;19953;-73
2022/05/26 10:11:19;;;;;;;;;;;;;;;23.79;100.00;98894.06;4912122;29;19966;-73
2022/05/26 10:13:55;;;;;;;;;;;;;;;23.80;100.00;98900.56;4921679;29;20239;-73
2022/05/26 10:16:29;;;;;;;;;;;;;;;23.75;100.00;98901.97;4920953;29;19947;-73
2022/05/26 10:19:15;;;;;;;;;;;;;;;23.71;100.00;98909.91;4920757;29;19981;-73
2022/05/26 10:21:48;;;;;;;;;;;;;;;23.52;100.00;98911.13;4911684;29;20403;-73
2022/05/26 10:24:48;;;;;;;;;;;;;;;23.58;100.00;98914.94;4921285;29;19954;-73
2022/05/26 10:27:18;;;;;;;;;;;;;;;23.46;100.00;98910.94;4884917;29;19956;-73
2022/05/26 10:29:55;;;;;;;;;;;;;;;23.70;100.00;98907.50;4904168;29;19952;-73
2022/05/26 10:32:32;;;;;;;;;;;;;;;23.63;100.00;98908.59;4903195;29;19967;-73
2022/05/26 10:35:21;;;;;;;;;;;;;;;23.61;100.00;98911.16;4887180;29;20247;-73
2022/05/26 10:38:06;;;;;;;;;;;;;;;23.66;100.00;98910.53;4903700;29;19951;-73
2022/05/26 10:40:34;;;;;;;;;;;;;;;23.68;100.00;98912.91;4903228;29;20241;-73
2022/05/26 10:43:07;;;;;;;;;;;;;;;23.80;100.00;98921.34;4903984;29;19947;-73
2022/05/26 10:45:47;;;;;;;;;;;;;;;23.70;100.00;98914.03;4886997;29;19950;-73
2022/05/26 10:48:35;;;;;;;;;;;;;;;23.79;100.00;98914.06;4903163;29;19954;-73
2022/05/26 10:51:09;;;;;;;;;;;;;;;23.81;100.00;98910.72;4903589;29;20360;-73
2022/05/26 10:53:49;;;;;;;;;;;;;;;23.93;100.00;98904.88;4905807;29;19949;-73
2022/05/26 10:56:39;;;;;;;;;;;;;;;24.00;100.00;98892.34;4919499;29;19951;-73
2022/05/26 10:59:13;;;;;;;;;;;;;;;23.91;100.00;98901.72;4911001;29;20242;-73
2022/05/26 11:01:59;;;;;;;;;;;;;;;23.95;100.00;98908.06;4922434;29;19947;-73
2022/05/26 11:04:33;;;;;;;;;;;;;;;23.95;100.00;98907.25;4903266;29;19950;-73
2022/05/26 11:07:12;;;;;;;;;;;;;;;23.86;100.00;98905.19;4911105;29;19978;-73
2022/05/26 11:09:42;;;;;;;;;;;;;;;24.04;100.00;98902.34;4922225;29;19949;-73
2022/05/26 11:12:19;;;;;;;;;;;;;;;24.02;100.00;98907.75;4921750;29;20350;-73
2022/05/26 11:17:42;;;;;;;;;;;;;;;23.98;100.00;98909.97;4919190;29;19950;-73
2022/05/26 11:20:14;;;;;;;;;;;;;;;23.95;100.00;98904.41;4920918;29;20251;-73
2022/05/26 11:22:45;;;;;;;;;;;;;;;24.11;100.00;98904.16;4921831;29;19950;-73
2022/05/26 11:25:13;;;;;;;;;;;;;;;24.20;100.00;98909.06;4921401;29;19952;-73
2022/05/26 11:27:45;;;;;;;;;;;;;;;24.14;100.00;98892.56;4904547;29;19949;-73
2022/05/26 11:36:21;;;;;;;;;;;;;;;23.73;100.00;98884.53;4914868;29;19948;-73
2022/05/26 11:38:50;;;;;;;;;;;;;;;23.51;100.00;98883.84;4911535;29;19951;-73
2022/05/26 11:41:30;;;;;;;;;;;;;;;23.49;100.00;98880.66;4919462;29;19979;-73
2022/05/26 11:44:06;;;;;;;;;;;;;;;23.39;100.00;98871.28;4904485;29;20230;-73
2022/05/26 11:46:43;;;;;;;;;;;;;;;23.45;100.00;98877.16;4921103;29;20257;-73
2022/05/26 11:49:11;;;;;;;;;;;;;;;23.31;100.00;98878.50;4919946;29;19957;-73
2022/05/26 11:51:42;;;;;;;;;;;;;;;23.31;100.00;98877.69;4890452;29;19965;-73
2022/05/26 11:54:10;;;;;;;;;;;;;;;23.32;100.00;98877.25;4904948;29;20007;-73
2022/05/26 11:56:41;;;;;;;;;;;;;;;23.40;100.00;98881.41;4914871;29;19952;-73
2022/05/26 11:59:17;;;;;;;;;;;;;;;23.36;100.00;98885.69;4921090;29;19956;-73
2022/05/26 12:01:45;;;;;;;;;;;;;;;23.47;100.00;98871.78;4920865;29;19951;-73
2022/05/26 12:04:32;;;;;;;;;;;;;;;23.49;100.00;98866.38;4920829;29;19950;-72
2022/05/26 12:07:01;;;;;;;;;;;;;;;23.56;100.00;98874.66;4921620;29;19974;-73
2022/05/26 12:09:28;;;;;;;;;;;;;;;23.64;100.00;98872.28;4920759;29;19951;-73
2022/05/26 12:12:01;;;;;;;;;;;;;;;23.49;100.00;98874.94;4920909;29;19971;-73
2022/05/26 12:14:31;;;;;;;;;;;;;;;23.43;100.00;98866.19;4921197;29;19955;-73
2022/05/26 12:17:17;;;;;;;;;;;;;;;23.38;100.00;98863.16;4920663;29;19949;-73
2022/05/26 12:19:45;;;;;;;;;;;;;;;23.30;100.00;98854.06;4920405;29;19956;-73
2022/05/26 12:22:22;;;;;;;;;;;;;;;23.32;100.00;98857.25;4921116;29;19958;-73
2022/05/26 12:24:59;;;;;;;;;;;;;;;23.45;100.00;98857.97;4920525;29;19945;-73
2022/05/26 12:27:55;;;;;;;;;;;;;;;23.36;100.00;98855.09;4920569;29;19944;-73
2022/05/26 12:30:28;;;;;;;;;;;;;;;23.45;100.00;98857.97;4881726;29;20231;-72
2022/05/26 12:32:56;;;;;;;;;;;;;;;23.44;100.00;98847.03;4911303;29;19964;-73
2022/05/26 12:35:26;;;;;;;;;;;;;;;23.32;100.00;98848.72;4920270;29;19956;-73
2022/05/26 12:38:00;;;;;;;;;;;;;;;23.43;100.00;98849.06;4920154;29;20261;-73
2022/05/26 12:40:27;;;;;;;;;;;;;;;23.30;100.00;98850.44;4904628;29;19983;-73
2022/05/26 12:42:57;;;;;;;;;;;;;;;23.31;100.00;98843.44;4920792;29;19948;-73
2022/05/26 12:45:34;;;;;;;;;;;;;;;23.33;100.00;98847.41;4920352;29;19953;-73
2022/05/26 12:48:01;;;;;;;;;;;;;;;23.38;100.00;98843.19;4920296;29;19953;-73
2022/05/26 12:50:29;;;;;;;;;;;;;;;23.31;100.00;98843.44;4914617;29;19953;-72
2022/05/26 12:52:57;;;;;;;;;;;;;;;23.48;100.00;98844.81;4919522;29;20269;-72
2022/05/26 12:55:33;;;;;;;;;;;;;;;23.60;100.00;98832.47;4920501;29;20341;-72
2022/05/26 12:58:06;;;;;;;;;;;;;;;23.60;100.00;98841.03;4915490;29;19946;-73
2022/05/26 13:00:34;;;;;;;;;;;;;;;23.63;100.00;98827.84;4920646;29;20214;-73
2022/05/26 13:03:22;;;;;;;;;;;;;;;23.61;100.00;98833.25;4912610;29;19962;-73
2022/05/26 13:05:53;;;;;;;;;;;;;;;23.79;100.00;98825.53;4918279;29;19977;-73
2022/05/26 13:08:21;;;;;;;;;;;;;;;23.86;100.00;98827.28;4916232;29;19952;-73
2022/05/26 13:10:51;;;;;;;;;;;;;;;24.06;100.00;98813.31;4915666;29;20262;-73
2022/05/26 13:13:37;;;;;;;;;;;;;;;24.32;100.00;98816.66;4908290;29;19967;-72
2022/05/26 13:16:23;;;;;;;;;;;;;;;24.46;100.00;98819.66;4902523;29;19953;-73
2022/05/26 13:18:54;;;;;;;;;;;;;;;24.54;100.00;98817.25;4909460;29;19949;-73
2022/05/26 13:21:28;;;;;;;;;;;;;;;24.39;100.00;98807.75;4918712;29;19954;-73
2022/05/26 13:23:55;;;;;;;;;;;;;;;24.52;100.00;98805.50;4915035;29;20260;-73
2022/05/26 13:26:24;;;;;;;;;;;;;;;24.27;100.00;98803.00;4918703;29;20313;-73
2022/05/26 13:28:56;;;;;;;;;;;;;;;24.31;100.00;98806.47;4920012;29;20269;-73
2022/05/26 13:34:11;;;;;;;;;;;;;;;24.41;100.00;98803.13;4922509;29;19958;-73
2022/05/26 13:36:40;;;;;;;;;;;;;;;24.26;100.00;98798.56;4921630;29;19963;-73
2022/05/26 13:39:11;;;;;;;;;;;;;;;24.52;100.00;98802.66;4921914;29;19949;-72
2022/05/26 13:41:43;;;;;;;;;;;;;;;24.21;100.00;98799.97;4922188;29;19981;-73
2022/05/26 13:44:13;;;;;;;;;;;;;;;24.22;100.00;98793.00;4922330;29;19946;-73
2022/05/26 13:46:45;;;;;;;;;;;;;;;24.11;100.00;98789.84;4919469;29;20245;-73
2022/05/26 13:49:32;;;;;;;;;;;;;;;24.26;100.00;98792.84;4922171;29;20339;-73
2022/05/26 13:52:19;;;;;;;;;;;;;;;24.29;100.00;98783.31;4917937;29;20348;-73
2022/05/26 13:54:46;;;;;;;;;;;;;;;24.36;100.00;98780.91;4921701;29;19959;-73
2022/05/26 13:57:19;;;;;;;;;;;;;;;24.58;100.00;98772.91;4915675;29;19949;-73
2022/05/26 13:59:57;;;;;;;;;;;;;;;24.59;100.00;98773.72;4903039;29;20260;-73
2022/05/26 14:02:35;;;;;;;;;;;;;;;24.67;100.00;98774.97;4914532;29;19950;-73
2022/05/26 14:05:05;;;;;;;;;;;;;;;24.90;100.00;98776.31;4849487;29;2049301;-73
2022/05/26 14:07:37;;;;;;;;;;;;;;;24.76;100.00;98777.78;4922368;29;19954;-73
2022/05/26 14:10:07;;;;;;;;;;;;;;;24.73;100.00;98767.31;4919264;29;19948;-73
2022/05/26 14:12:35;;;;;;;;;;;;;;;24.85;100.00;98762.66;4912483;29;19964;-73
2022/05/26 14:15:04;;;;;;;;;;;;;;;24.63;100.00;98757.97;4910313;29;19954;-73
2022/05/26 14:17:32;;;;;;;;;;;;;;;24.61;100.00;98748.28;4913132;29;19955;-72
2022/05/26 14:20:02;;;;;;;;;;;;;;;24.75;100.00;98756.97;4921725;29;19947;-73
2022/05/26 14:22:31;;;;;;;;;;;;;;;24.75;100.00;98742.66;4922371;29;19952;-73
2022/05/26 14:24:59;;;;;;;;;;;;;;;24.76;100.00;98746.31;4918690;29;19958;-73
2022/05/26 14:27:27;;;;;;;;;;;;;;;24.94;100.00;98740.56;4923179;29;20252;-73
2022/05/26 14:29:59;;;;;;;;;;;;;;;25.01;100.00;98743.06;4920329;29;19955;-73
2022/05/26 14:32:31;;;;;;;;;;;;;;;24.98;100.00;98737.50;4903083;29;19948;-73
2022/05/26 14:35:02;;;;;;;;;;;;;;;24.72;100.00;98737.91;4903703;29;19950;-73
2022/05/26 14:37:30;;;;;;;;;;;;;;;24.69;100.00;98735.22;4903841;29;20320;-73
2022/05/26 14:39:57;;;;;;;;;;;;;;;24.62;100.00;98739.25;4907821;29;19960;-73
2022/05/26 14:42:35;;;;;;;;;;;;;;;24.56;100.00;98737.50;4918027;29;19951;-73
2022/05/26 14:45:04;;;;;;;;;;;;;;;24.54;100.00;98734.34;4921956;29;19956;-73
2022/05/26 14:47:32;;;;;;;;;;;;;;;24.55;100.00;98730.22;4921350;29;20282;-73
2022/05/26 14:49:59;;;;;;;;;;;;;;;24.53;100.00;98742.09;4921573;29;20234;-73
2022/05/26 14:52:28;;;;;;;;;;;;;;;24.62;100.00;98739.25;4921646;29;20343;-73
2022/05/26 14:57:42;;;;;;;;;;;;;;;24.64;100.00;98736.69;4916234;29;20247;-73
2022/05/26 15:00:11;;;;;;;;;;;;;;;24.72;100.00;98732.19;4915097;29;19951;-73
2022/05/26 15:02:39;;;;;;;;;;;;;;;24.72;100.00;98737.91;4921752;29;19951;-73
2022/05/26 15:05:07;;;;;;;;;;;;;;;24.89;100.00;98735.50;4922172;29;20338;-73
2022/05/26 15:07:35;;;;;;;;;;;;;;;24.88;100.00;98733.91;4922100;29;19949;-73
2022/05/26 15:10:03;;;;;;;;;;;;;;;24.90;100.00;98728.47;4921153;29;19964;-73
2022/05/26 15:12:31;;;;;;;;;;;;;;;24.76;100.00;98732.03;4909634;29;19947;-73
2022/05/26 15:14:58;;;;;;;;;;;;;;;24.79;100.00;98734.75;4925254;29;19956;-73
2022/05/26 15:17:26;;;;;;;;;;;;;;;24.85;100.00;98742.66;4940931;29;19963;-73
2022/05/26 15:19:58;;;;;;;;;;;;;;;24.74;100.00;98735.38;4926219;29;20317;-73
2022/05/26 15:22:27;;;;;;;;;;;;;;;24.60;100.00;98738.13;4929640;29;19963;-73
2022/05/26 15:24:54;;;;;;;;;;;;;;;24.61;100.00;98737.63;4926747;29;19956;-73
2022/05/26 15:27:24;;;;;;;;;;;;;;;24.74;100.00;98723.13;4921415;29;20036;-73
2022/05/26 15:29:51;;;;;;;;;;;;;;;24.69;100.00;98732.38;4923297;29;20345;-73
2022/05/26 15:32:30;;;;;;;;;;;;;;;24.52;100.00;98734.03;4940623;29;20368;-73
2022/05/26 15:34:57;;;;;;;;;;;;;;;24.37;100.00;98733.09;4940195;29;19976;-73
2022/05/26 15:37:25;;;;;;;;;;;;;;;24.44;100.00;98738.50;4940240;29;19965;-73
2022/05/26 15:39:53;;;;;;;;;;;;;;;24.34;100.00;98734.06;4917206;29;19958;-73
2022/05/26 15:42:20;;;;;;;;;;;;;;;24.35;100.00;98729.94;4905115;29;19954;-73
2022/05/26 15:44:47;;;;;;;;;;;;;;;24.32;100.00;98734.56;4921125;29;19962;-73
2022/05/26 15:47:15;;;;;;;;;;;;;;;24.24;100.00;98732.50;4919587;29;19956;-73
2022/05/26 15:49:44;;;;;;;;;;;;;;;24.19;100.00;98733.94;4917926;29;19949;-73
2022/05/26 15:52:12;;;;;;;;;;;;;;;24.21;100.00;98733.47;4921105;29;19966;-73
2022/05/26 15:54:40;;;;;;;;;;;;;;;24.16;100.00;98729.97;4920147;29;19965;-73
2022/05/26 15:57:07;;;;;;;;;;;;;;;24.21;100.00;98724.91;4920504;29;19995;-73
2022/05/26 15:59:35;;;;;;;;;;;;;;;24.11;100.00;98724.91;4916166;29;19960;-73
2022/05/26 16:02:04;;;;;;;;;;;;;;;24.09;100.00;98723.78;4914692;29;19950;-73
2022/05/26 16:04:31;;;;;;;;;;;;;;;24.14;100.00;98715.38;4919065;29;19954;-73
2022/05/26 16:06:58;;;;;;;;;;;;;;;24.13;100.00;98713.00;4922501;29;19976;-73
2022/05/26 16:09:26;;;;;;;;;;;;;;;24.23;100.00;98717.44;4917414;29;19960;-73
2022/05/26 16:11:54;;;;;;;;;;;;;;;24.26;100.00;98721.41;4920269;29;19952;-73
2022/05/26 16:14:22;;;;;;;;;;;;;;;24.16;100.00;98718.53;4920486;29;19963;-74
2022/05/26 16:16:50;;;;;;;;;;;;;;;24.18;100.00;98716.00;4920988;29;19949;-73
2022/05/26 16:19:20;;;;;;;;;;;;;;;24.07;100.00;98715.72;4904400;29;19947;-73
2022/05/26 16:21:48;;;;;;;;;;;;;;;24.14;100.00;98714.59;4920083;29;20365;-73
2022/05/26 16:24:15;;;;;;;;;;;;;;;24.10;100.00;98717.63;4919665;29;20330;-73
2022/05/26 16:26:43;;;;;;;;;;;;;;;24.07;100.00;98717.78;4923331;29;19950;-73
2022/05/26 16:29:10;;;;;;;;;;;;;;;24.04;100.00;98705.22;4919341;29;19950;-73
2022/05/26 16:31:37;;;;;;;;;;;;;;;23.98;100.00;98710.00;4918631;29;19957;-73
2022/05/26 16:34:05;;;;;;;;;;;;;;;24.01;100.00;98709.00;4899804;29;20273;-73
2022/05/26 16:36:43;;;;;;;;;;;;;;;23.92;100.00;98705.38;4903861;29;19976;-73
2022/05/26 16:39:11;;;;;;;;;;;;;;;23.86;100.00;98710.16;4920384;29;19953;-73
2022/05/26 16:41:39;;;;;;;;;;;;;;;23.79;100.00;98699.88;4920324;29;20226;-73
2022/05/26 16:44:07;;;;;;;;;;;;;;;23.85;100.00;98697.13;4920846;29;20217;-73
2022/05/26 16:46:35;;;;;;;;;;;;;;;23.72;100.00;98694.44;4920064;29;19962;-72
2022/05/26 16:49:03;;;;;;;;;;;;;;;23.75;100.00;98704.13;4922552;29;19961;-73
2022/05/26 16:51:41;;;;;;;;;;;;;;;23.60;100.00;98695.41;4919955;29;19955;-73
2022/05/26 16:54:22;;;;;;;;;;;;;;;23.54;100.00;98694.47;4926182;29;20400;-73
2022/05/26 16:56:49;;;;;;;;;;;;;;;23.61;100.00;98699.88;4925591;29;20206;-73
2022/05/26 16:59:17;;;;;;;;;;;;;;;23.53;100.00;98696.53;4904169;29;19981;-73
2022/05/26 17:01:45;;;;;;;;;;;;;;;23.52;100.00;98699.88;4908769;29;19946;-73
2022/05/26 17:04:12;;;;;;;;;;;;;;;23.50;100.00;98705.25;4921531;29;20249;-72
2022/05/26 17:06:41;;;;;;;;;;;;;;;23.51;100.00;98709.69;4919640;29;19968;-72
2022/05/26 17:09:10;;;;;;;;;;;;;;;23.45;100.00;98709.53;4914637;29;19983;-73
2022/05/26 17:11:37;;;;;;;;;;;;;;;23.37;100.00;98710.31;4919084;29;19954;-73
2022/05/26 17:22:22;;;;;;;;;;;;;;;23.25;100.00;98708.38;4906815;29;19955;-73
2022/05/26 17:24:54;;;;;;;;;;;;;;;23.29;100.00;98712.66;4908855;29;21203;-72
2022/05/26 17:27:29;;;;;;;;;;;;;;;23.24;100.00;98706.78;4911349;29;19950;-73
2022/05/26 17:29:57;;;;;;;;;;;;;;;23.19;100.00;98707.41;4915404;29;19942;-73
2022/05/26 17:32:25;;;;;;;;;;;;;;;23.16;100.00;98709.13;4919315;29;20357;-73
2022/05/26 17:34:52;;;;;;;;;;;;;;;23.15;100.00;98712.47;4910343;29;19967;-73
2022/05/26 17:37:20;;;;;;;;;;;;;;;23.16;100.00;98700.59;4915419;29;19982;-73
2022/05/26 17:39:48;;;;;;;;;;;;;;;23.20;100.00;98698.38;4910930;29;20257;-73
2022/05/26 17:42:16;;;;;;;;;;;;;;;23.21;100.00;98704.88;4911688;29;19951;-73
2022/05/26 17:44:43;;;;;;;;;;;;;;;23.10;100.00;98695.97;4922774;29;19949;-73
2022/05/26 17:47:10;;;;;;;;;;;;;;;23.07;100.00;98696.91;4919556;29;19946;-73
2022/05/26 17:49:39;;;;;;;;;;;;;;;23.02;100.00;98695.50;4919456;29;20382;-72
2022/05/26 17:52:09;;;;;;;;;;;;;;;22.97;100.00;98701.00;4913142;29;20242;-73
2022/05/26 17:54:41;;;;;;;;;;;;;;;22.94;100.00;98701.97;4918277;29;19969;-73
2022/05/26 17:57:08;;;;;;;;;;;;;;;22.91;100.00;98706.56;4919726;29;20343;-73
2022/05/26 18:02:24;;;;;;;;;;;;;;;22.86;100.00;98702.25;4914880;29;19950;-73
2022/05/26 18:04:52;;;;;;;;;;;;;;;22.84;100.00;98707.63;4922784;29;19953;-73
2022/05/26 18:07:20;;;;;;;;;;;;;;;22.83;100.00;98700.38;4919572;29;19958;-74
2022/05/26 18:09:48;;;;;;;;;;;;;;;22.80;100.00;98689.91;4918735;29;19954;-73
2022/05/26 18:12:15;;;;;;;;;;;;;;;22.79;100.00;98704.63;4904357;29;20384;-73
2022/05/26 18:14:42;;;;;;;;;;;;;;;22.78;100.00;98700.19;4899845;29;19973;-73
2022/05/26 18:17:12;;;;;;;;;;;;;;;22.77;100.00;98702.22;4900661;29;19955;-73
2022/05/26 18:19:43;;;;;;;;;;;;;;;22.70;100.00;98701.72;4911677;29;19955;-73
2022/05/26 18:22:12;;;;;;;;;;;;;;;22.65;100.00;98706.00;4910484;29;19956;-73
2022/05/26 18:24:40;;;;;;;;;;;;;;;22.64;100.00;98712.94;4921867;29;19958;-73
2022/05/26 18:27:08;;;;;;;;;;;;;;;22.57;100.00;98703.88;4922551;29;19956;-73
2022/05/26 18:29:36;;;;;;;;;;;;;;;22.56;100.00;98702.28;4906044;29;19952;-73
2022/05/26 18:32:05;;;;;;;;;;;;;;;22.55;100.00;98704.34;4906235;29;19979;-73
2022/05/26 18:34:40;;;;;;;;;;;;;;;22.53;100.00;98701.16;4927161;29;19965;-73
2022/05/26 18:37:11;;;;;;;;;;;;;;;22.48;100.00;98701.78;4905368;29;19947;-73
2022/05/26 18:39:39;;;;;;;;;;;;;;;22.44;100.00;98692.59;4921606;29;19950;-73
2022/05/26 18:42:09;;;;;;;;;;;;;;;22.47;100.00;98694.47;4922218;29;19946;-73
2022/05/26 18:44:37;;;;;;;;;;;;;;;22.54;100.00;98696.25;4921026;29;19950;-73